Time;durP1;ratioP1;P1;durP2;ratioP2;P2;SDS_P1;SDS_P2;PMS_P1;PMS_P2;Temp;Humidity;BMP_temperature;BMP_pressure;BME280_temperature;BME280_humidity;BME280_pressure;Samples;Min_cycle;Max_cycle;Signal;HPM_P1;HPM_P2
2023/06/20 00:00:47;;;;;;;13.40;12.00;;;;;;;21.67;49.31;100360.08;108876;1281;23595;-87
2023/06/20 00:03:45;;;;;;;15.60;14.30;;;;;;;21.63;49.44;100358.80;108974;1281;22273;-90
2023/06/20 00:06:24;;;;;;;14.90;12.80;;;;;;;21.60;49.50;100360.27;108905;1278;22997;-88
2023/06/20 00:09:25;;;;;;;13.80;12.50;;;;;;;21.54;49.72;100359.02;108475;1285;21997;-90
2023/06/20 00:12:06;;;;;;;13.30;12.20;;;;;;;21.53;49.83;100363.86;108469;1285;22460;-88
2023/06/20 00:14:48;;;;;;;14.00;12.70;;;;;;;21.50;49.93;100362.17;108700;1283;23080;-88
2023/06/20 00:17:25;;;;;;;13.10;12.00;;;;;;;21.47;50.22;100361.34;108791;1282;22590;-91
2023/06/20 00:20:13;;;;;;;13.20;11.90;;;;;;;21.42;50.41;100362.15;108770;1282;22039;-87
2023/06/20 00:22:50;;;;;;;13.40;11.50;;;;;;;21.39;50.48;100363.45;108600;1285;22006;-88
2023/06/20 00:25:31;;;;;;;14.60;13.30;;;;;;;21.36;50.46;100367.06;108612;1277;22003;-88
2023/06/20 00:28:16;;;;;;;15.10;13.80;;;;;;;21.31;50.62;100366.05;109166;1277;23634;-89
2023/06/20 00:30:58;;;;;;;13.80;12.60;;;;;;;21.26;50.78;100365.20;109071;1277;22010;-86
2023/06/20 00:33:37;;;;;;;14.20;12.90;;;;;;;21.23;50.88;100367.93;108931;1273;22004;-88
2023/06/20 00:36:13;;;;;;;14.30;13.10;;;;;;;21.18;50.91;100367.27;109343;1272;21982;-87
2023/06/20 00:38:52;;;;;;;16.20;14.80;;;;;;;21.11;51.09;100367.12;107409;1272;2817957;-89
2023/06/20 00:41:31;;;;;;;16.40;14.80;;;;;;;21.06;51.46;100363.83;109710;1268;22965;-87
2023/06/20 00:44:10;;;;;;;15.60;14.20;;;;;;;21.04;51.57;100367.02;109727;1268;22044;-89
2023/06/20 00:47:03;;;;;;;15.00;13.70;;;;;;;21.01;51.62;100369.89;109841;1265;23070;-88
2023/06/20 00:49:48;;;;;;;16.60;15.10;;;;;;;20.97;51.74;100368.83;109853;1265;22762;-90
2023/06/20 00:52:30;;;;;;;15.50;14.00;;;;;;;20.89;51.87;100364.67;109854;1267;22455;-88
2023/06/20 00:55:16;;;;;;;14.10;12.80;;;;;;;20.86;51.89;100360.34;109270;1274;21988;-90
2023/06/20 00:58:01;;;;;;;15.20;13.70;;;;;;;20.81;52.11;100366.77;109249;1274;21996;-87
2023/06/20 01:00:38;;;;;;;16.30;14.80;;;;;;;20.75;52.36;100365.84;108893;1280;22003;-87
2023/06/20 01:03:18;;;;;;;15.90;14.50;;;;;;;20.69;52.62;100368.96;108868;1271;22019;-87
2023/06/20 01:06:42;;;;;;;17.30;14.50;;;;;;;20.65;52.93;100366.23;108715;1283;22079;-87
2023/06/20 01:10:16;;;;;;;15.70;14.20;;;;;;;20.60;53.22;100370.13;108315;1290;22010;-88
2023/06/20 01:13:29;;;;;;;19.10;15.20;;;;;;;20.47;53.30;100363.06;108452;1285;22310;-87
2023/06/20 01:16:33;;;;;;;15.50;14.20;;;;;;;20.53;53.71;100371.08;108445;1288;22007;-87
2023/06/20 01:19:55;;;;;;;16.30;14.90;;;;;;;20.53;53.78;100370.00;108659;1284;22941;-88
2023/06/20 01:23:04;;;;;;;18.40;16.30;;;;;;;20.49;53.76;100365.16;108639;1284;22501;-89
2023/06/20 01:26:30;;;;;;;16.30;14.20;;;;;;;20.44;54.06;100368.90;108806;1276;21991;-87
2023/06/20 01:29:39;;;;;;;17.80;15.40;;;;;;;20.39;54.17;100366.64;108507;1288;23744;-87
2023/06/20 01:32:35;;;;;;;16.60;15.20;;;;;;;20.36;54.28;100364.96;108472;1288;22011;-86
2023/06/20 01:35:19;;;;;;;17.60;16.00;;;;;;;20.31;54.47;100366.23;108417;1288;22592;-87
2023/06/20 01:37:59;;;;;;;16.30;14.70;;;;;;;20.27;54.65;100366.70;108383;1291;22684;-86
2023/06/20 01:40:35;;;;;;;17.60;16.00;;;;;;;20.24;54.77;100369.63;108352;1290;22001;-86
2023/06/20 01:43:14;;;;;;;19.00;17.20;;;;;;;20.19;55.08;100371.05;108264;1290;22016;-85
2023/06/20 01:46:11;;;;;;;17.60;16.00;;;;;;;20.14;55.37;100371.85;108515;1282;21997;-87
2023/06/20 01:48:52;;;;;;;18.40;16.50;;;;;;;20.10;55.46;100372.48;108880;1280;22013;-87
2023/06/20 01:51:39;;;;;;;20.00;17.40;;;;;;;20.05;55.82;100375.88;109008;1274;22021;-86
2023/06/20 01:54:13;;;;;;;18.70;17.00;;;;;;;20.02;56.04;100375.55;109206;1274;23712;-86
2023/06/20 01:57:41;;;;;;;18.80;16.90;;;;;;;19.96;56.20;100373.19;109434;1273;21990;-85
2023/06/20 02:00:26;;;;;;;18.20;16.70;;;;;;;19.92;56.23;100376.48;108916;1279;22339;-87
2023/06/20 02:03:04;;;;;;;19.10;16.60;;;;;;;19.87;56.36;100366.98;108859;1279;25086;-85
2023/06/20 02:05:45;;;;;;;18.90;17.20;;;;;;;19.82;56.65;100365.43;108609;1279;22012;-86
2023/06/20 02:08:34;;;;;;;17.80;16.30;;;;;;;19.76;56.75;100362.35;108686;1284;23759;-89
2023/06/20 02:11:14;;;;;;;20.00;18.40;;;;;;;19.71;56.77;100360.06;108542;1284;22019;-85
2023/06/20 02:13:56;;;;;;;18.60;16.90;;;;;;;19.65;56.77;100355.39;108541;1284;21773;-87
2023/06/20 02:17:00;;;;;;;19.40;17.80;;;;;;;19.54;57.14;100350.74;108904;1279;21999;-87
2023/06/20 02:19:45;;;;;;;19.20;17.40;;;;;;;19.46;57.25;100355.60;109230;1274;22742;-87
2023/06/20 02:25:35;;;;;;;19.90;17.80;;;;;;;19.36;57.50;100348.58;109726;1270;22348;-88
2023/06/20 02:28:26;;;;;;;19.40;17.70;;;;;;;19.33;57.70;100348.08;109493;1267;22044;-87
2023/06/20 02:31:15;;;;;;;20.90;19.10;;;;;;;19.31;57.63;100345.08;109705;1270;23065;-87
2023/06/20 02:34:17;;;;;;;19.60;17.70;;;;;;;19.29;57.74;100343.59;109611;1270;21999;-86
2023/06/20 02:36:55;;;;;;;20.30;18.20;;;;;;;19.27;57.81;100348.48;109651;1270;22412;-87
2023/06/20 02:39:48;;;;;;;21.10;18.90;;;;;;;19.26;57.81;100349.51;109852;1268;22022;-86
2023/06/20 02:42:43;;;;;;;21.70;19.70;;;;;;;19.22;57.90;100351.39;110005;1268;21980;-85
2023/06/20 02:45:36;;;;;;;20.70;18.50;;;;;;;19.20;58.00;100348.88;109965;1268;23708;-85
2023/06/20 02:48:57;;;;;;;22.60;20.40;;;;;;;19.12;57.85;100341.14;109548;1270;22742;-86
2023/06/20 02:51:52;;;;;;;22.60;20.30;;;;;;;19.04;58.01;100345.42;109484;1270;22346;-85
2023/06/20 02:55:22;;;;;;;22.70;20.60;;;;;;;19.03;58.49;100343.21;109665;1270;22072;-85
2023/06/20 02:58:06;;;;;;;22.50;19.80;;;;;;;19.02;58.56;100341.00;109425;1276;24169;-89
2023/06/20 03:01:00;;;;;;;21.70;19.60;;;;;;;18.99;58.71;100347.74;109133;1276;22205;-88
2023/06/20 03:03:53;;;;;;;21.70;19.90;;;;;;;19.00;58.86;100349.48;109207;1276;22127;-86
2023/06/20 03:06:31;;;;;;;22.70;20.60;;;;;;;19.00;58.92;100349.98;109246;1274;21999;-84
2023/06/20 03:09:06;;;;;;;29.00;20.10;;;;;;;19.00;58.93;100354.70;108849;1280;21994;-85
2023/06/20 03:11:38;;;;;;;21.70;19.60;;;;;;;19.00;59.14;100354.03;108822;1280;22006;-85
2023/06/20 03:14:14;;;;;;;19.90;18.20;;;;;;;19.00;59.09;100353.30;108781;1280;22353;-84
2023/06/20 03:16:53;;;;;;;20.60;18.70;;;;;;;19.01;59.11;100350.06;108554;1286;22049;-86
2023/06/20 03:19:32;;;;;;;22.40;20.50;;;;;;;19.03;59.04;100352.07;108649;1286;23738;-85
2023/06/20 03:22:09;;;;;;;42.80;39.30;;;;;;;19.04;58.95;100350.17;108463;1279;22009;-87
2023/06/20 03:24:47;;;;;;;26.00;23.40;;;;;;;19.07;58.99;100352.13;108471;1286;23751;-86
2023/06/20 03:27:31;;;;;;;23.70;21.40;;;;;;;19.09;58.96;100353.52;108649;1280;23657;-86
2023/06/20 03:30:19;;;;;;;23.50;21.40;;;;;;;19.09;58.90;100357.02;108839;1280;21996;-85
2023/06/20 03:33:02;;;;;;;23.30;21.10;;;;;;;19.12;58.95;100362.65;108906;1280;21987;-88
2023/06/20 03:35:50;;;;;;;22.40;20.30;;;;;;;19.18;58.79;100365.24;109557;1268;24393;-86
2023/06/20 03:38:28;;;;;;;23.80;21.60;;;;;;;19.22;58.52;100365.66;109761;1268;22085;-84
2023/06/20 03:40:58;;;;;;;23.80;21.70;;;;;;;19.26;58.44;100367.81;109716;1268;21988;-85
2023/06/20 03:43:45;;;;;;;24.20;22.00;;;;;;;19.34;58.55;100365.50;109889;1262;22053;-85
2023/06/20 03:46:25;;;;;;;23.60;21.60;;;;;;;19.43;58.46;100364.96;109723;1268;21978;-85
2023/06/20 03:48:54;;;;;;;21.30;19.60;;;;;;;19.51;58.15;100371.42;109905;1268;22061;-84
2023/06/20 03:51:46;;;;;;;23.50;21.10;;;;;;;19.56;57.98;100368.44;109867;1268;21997;-85
2023/06/20 03:54:34;;;;;;;23.40;20.90;;;;;;;19.63;58.14;100368.42;109575;1268;22499;-85
2023/06/20 03:57:16;;;;;;;24.80;22.00;;;;;;;19.73;57.93;100366.43;109145;1276;22010;-84
2023/06/20 03:59:55;;;;;;;23.50;21.30;;;;;;;19.84;57.75;100369.71;109179;1276;21989;-87
2023/06/20 04:02:53;;;;;;;;;;;;;;;;;;;;;
2023/06/20 04:05:30;;;;;;;21.80;19.90;;;;;;;19.97;57.41;100370.11;108672;1273;23074;-85
2023/06/20 04:08:01;;;;;;;22.20;20.40;;;;;;;20.05;57.01;100370.36;108526;1286;22024;-83
2023/06/20 04:10:38;;;;;;;22.30;20.20;;;;;;;20.13;56.60;100370.81;108617;1286;22013;-84
2023/06/20 04:13:18;;;;;;;23.20;21.00;;;;;;;20.22;56.65;100371.19;108627;1280;22761;-84
2023/06/20 04:15:52;;;;;;;23.00;20.80;;;;;;;20.31;56.41;100372.11;108625;1285;22858;-87
2023/06/20 04:18:36;;;;;;;24.20;22.20;;;;;;;20.39;56.21;100368.12;108454;1286;23677;-87
2023/06/20 04:21:31;;;;;;;22.30;20.30;;;;;;;20.50;56.22;100363.34;108396;1287;21994;-88
2023/06/20 04:24:04;;;;;;;21.80;19.60;;;;;;;20.61;56.10;100362.69;108512;1284;22190;-85
2023/06/20 04:26:37;;;;;;;24.80;22.20;;;;;;;20.71;55.81;100362.93;108474;1284;22938;-84
2023/06/20 04:29:09;;;;;;;24.50;22.30;;;;;;;20.76;55.47;100369.08;108604;1284;23706;-85
2023/06/20 04:31:56;;;;;;;23.20;21.10;;;;;;;20.78;55.26;100372.09;108474;1284;22006;-85
2023/06/20 04:34:33;;;;;;;23.90;21.70;;;;;;;20.82;55.29;100372.29;108624;1279;22074;-85
2023/06/20 04:37:08;;;;;;;22.60;20.50;;;;;;;20.90;55.11;100375.20;109235;1273;23743;-85
2023/06/20 04:39:53;;;;;;;22.10;20.20;;;;;;;21.00;54.75;100368.59;109709;1268;21989;-85
2023/06/20 04:42:46;;;;;;;21.20;19.50;;;;;;;21.14;54.48;100372.23;109844;1268;21954;-86
2023/06/20 04:45:28;;;;;;;21.70;19.60;;;;;;;21.25;54.01;100365.10;110018;1262;22413;-86
2023/06/20 04:48:09;;;;;;;22.30;20.40;;;;;;;21.44;53.73;100363.71;110052;1268;22607;-88
2023/06/20 04:50:57;;;;;;;21.70;19.90;;;;;;;21.72;53.42;100367.23;110033;1268;23730;-88
2023/06/20 04:53:34;;;;;;;23.30;20.00;;;;;;;22.06;53.01;100369.00;109786;1265;22051;-89
2023/06/20 04:56:22;;;;;;;21.70;19.80;;;;;;;22.35;52.65;100373.05;109500;1271;23123;-87
2023/06/20 04:59:05;;;;;;;20.50;18.80;;;;;;;22.70;52.13;100371.39;109500;1271;23623;-88
2023/06/20 05:02:05;;;;;;;19.10;17.40;;;;;;;23.05;51.27;100367.30;109121;1274;22559;-88
2023/06/20 05:04:52;;;;;;;20.70;18.90;;;;;;;23.35;50.53;100370.55;109512;1275;22148;-89
2023/06/20 05:07:44;;;;;;;21.00;18.90;;;;;;;23.72;50.26;100371.42;109416;1275;21988;-87
2023/06/20 05:10:33;;;;;;;17.90;16.30;;;;;;;24.14;49.36;100371.83;109032;1279;22031;-88
2023/06/20 05:13:15;;;;;;;19.70;17.90;;;;;;;24.51;48.39;100369.22;109058;1279;22015;-89
2023/06/20 05:16:41;;;;;;;20.30;18.40;;;;;;;24.77;46.85;100370.64;109316;1276;22025;-86
2023/06/20 05:19:32;;;;;;;18.30;16.80;;;;;;;25.02;46.49;100369.04;109379;1272;22003;-90
2023/06/20 05:22:15;;;;;;;18.10;16.70;;;;;;;25.36;46.18;100369.98;109671;1272;23077;-84
2023/06/20 05:24:52;;;;;;;19.10;17.00;;;;;;;25.69;45.38;100371.20;109101;1276;22002;-79
2023/06/20 05:27:24;;;;;;;17.60;16.00;;;;;;;25.88;44.38;100372.47;108947;1273;22002;-79
2023/06/20 05:29:53;;;;;;;16.60;15.20;;;;;;;26.10;44.30;100375.61;109130;1278;22074;-81
2023/06/20 05:32:22;;;;;;;16.50;15.20;;;;;;;26.42;43.64;100374.38;108889;1278;22013;-82
2023/06/20 05:34:53;;;;;;;16.80;15.30;;;;;;;26.62;42.26;100372.10;109084;1278;22003;-80
2023/06/20 05:37:22;;;;;;;17.30;15.00;;;;;;;26.71;41.49;100373.75;108904;1278;21862;-88
2023/06/20 05:39:52;;;;;;;15.40;14.10;;;;;;;26.82;41.65;100378.27;109126;1278;23739;-81
2023/06/20 05:42:27;;;;;;;17.00;15.40;;;;;;;27.08;41.37;100378.55;109034;1273;21991;-79
2023/06/20 05:45:03;;;;;;;16.60;15.00;;;;;;;27.35;40.34;100383.67;109138;1277;24142;-85
2023/06/20 05:47:42;;;;;;;17.00;15.60;;;;;;;27.43;40.04;100385.47;109153;1273;23803;-85
2023/06/20 05:50:18;;;;;;;16.80;15.30;;;;;;;27.58;39.60;100387.09;109478;1273;23116;-86
2023/06/20 05:53:24;;;;;;;18.40;16.00;;;;;;;27.65;39.52;100386.67;109399;1270;21987;-85
2023/06/20 05:56:24;;;;;;;18.70;16.60;;;;;;;27.84;39.54;100384.98;109440;1273;21981;-89
2023/06/20 05:59:26;;;;;;;18.20;16.40;;;;;;;27.99;39.21;100388.63;109498;1273;21986;-88
2023/06/20 06:02:07;;;;;;;17.80;15.50;;;;;;;28.11;39.45;100390.61;109524;1268;23167;-87
2023/06/20 06:04:53;;;;;;;16.80;15.50;;;;;;;28.25;39.05;100393.33;109807;1268;21982;-84
2023/06/20 06:11:28;;;;;;;17.00;15.20;;;;;;;28.56;39.06;100398.82;109962;1267;23634;-83
2023/06/20 06:14:11;;;;;;;15.70;14.30;;;;;;;28.77;38.62;100399.77;109910;1267;22462;-85
2023/06/20 06:16:59;;;;;;;16.10;14.50;;;;;;;28.89;38.17;100396.10;110074;1268;22333;-85
2023/06/20 06:19:44;;;;;;;15.70;13.40;;;;;;;29.03;38.12;100396.34;109935;1268;22012;-85
2023/06/20 06:22:29;;;;;;;16.40;14.80;;;;;;;29.14;37.64;100398.40;109598;1272;21992;-85
2023/06/20 06:25:28;;;;;;;15.60;13.90;;;;;;;29.37;37.68;100401.51;109503;1272;21977;-86
2023/06/20 06:28:27;;;;;;;14.10;12.80;;;;;;;29.60;36.61;100401.06;109550;1273;22486;-85
2023/06/20 06:31:31;;;;;;;17.00;15.40;;;;;;;29.71;36.06;100404.38;109502;1273;22058;-86
2023/06/20 06:34:16;;;;;;;14.00;12.90;;;;;;;29.78;35.91;100405.87;109368;1273;21995;-84
2023/06/20 06:37:21;;;;;;;13.70;12.60;;;;;;;30.01;35.72;100407.33;109469;1273;21996;-86
2023/06/20 06:43:16;;;;;;;13.10;11.80;;;;;;;30.14;33.93;100412.93;109757;1269;22008;-84
2023/06/20 06:46:25;;;;;;;18.80;12.30;;;;;;;30.13;33.79;100414.36;109622;1269;23037;-84
2023/06/20 06:49:14;;;;;;;13.20;12.10;;;;;;;30.29;33.66;100415.56;109818;1269;23740;-87
2023/06/20 06:52:15;;;;;;;15.00;12.50;;;;;;;30.50;33.26;100416.14;109770;1269;21983;-85
2023/06/20 06:55:03;;;;;;;12.30;11.30;;;;;;;30.78;32.59;100415.92;109948;1269;21973;-84
2023/06/20 06:57:44;;;;;;;13.30;11.90;;;;;;;30.88;31.73;100419.62;109560;1274;23672;-79
2023/06/20 07:00:29;;;;;;;20.80;12.10;;;;;;;30.83;31.83;100425.80;109662;1273;22438;-86
2023/06/20 07:03:08;;;;;;;13.30;11.80;;;;;;;30.76;32.16;100432.89;109308;1273;23648;-84
2023/06/20 07:05:56;;;;;;;13.30;12.10;;;;;;;30.77;32.40;100431.50;109455;1273;22002;-82
2023/06/20 07:08:33;;;;;;;12.20;11.10;;;;;;;30.89;32.05;100428.46;109491;1273;22024;-82
2023/06/20 07:11:08;;;;;;;13.50;12.10;;;;;;;31.01;31.95;100431.06;109253;1276;22022;-82
2023/06/20 07:13:38;;;;;;;11.80;10.60;;;;;;;31.13;31.87;100433.39;109115;1276;21995;-81
2023/06/20 07:16:19;;;;;;;11.90;10.80;;;;;;;31.27;31.31;100442.30;109295;1272;22485;-82
2023/06/20 07:18:59;;;;;;;11.30;10.30;;;;;;;31.41;30.90;100436.63;109626;1272;21965;-82
2023/06/20 07:21:49;;;;;;;11.30;10.10;;;;;;;31.49;30.85;100437.35;109431;1272;23048;-83
2023/06/20 07:24:33;;;;;;;11.20;10.10;;;;;;;31.54;29.99;100437.32;109649;1272;22003;-83
2023/06/20 07:27:03;;;;;;;12.80;9.90;;;;;;;31.57;29.78;100435.39;109565;1272;21993;-82
2023/06/20 07:29:38;;;;;;;10.70;9.60;;;;;;;31.67;29.39;100438.02;109118;1274;22004;-82
2023/06/20 07:32:16;;;;;;;11.00;9.60;;;;;;;31.79;29.06;100431.27;109039;1274;22041;-82
2023/06/20 07:34:59;;;;;;;10.20;9.20;;;;;;;31.94;28.70;100428.48;109205;1261;22922;-80
2023/06/20 07:37:33;;;;;;;12.00;8.60;;;;;;;32.04;28.22;100430.58;109401;1273;21982;-81
2023/06/20 07:40:27;;;;;;;10.30;9.40;;;;;;;32.01;28.03;100429.95;109386;1273;22001;-82
2023/06/20 07:43:27;;;;;;;10.90;9.50;;;;;;;31.95;28.30;100430.17;109437;1273;21982;-83
2023/06/20 07:46:13;;;;;;;11.40;10.40;;;;;;;31.85;28.05;100430.33;109419;1273;22915;-82
2023/06/20 07:48:57;;;;;;;11.00;10.10;;;;;;;31.78;28.55;100430.31;109939;1268;21995;-84
2023/06/20 07:51:43;;;;;;;12.20;9.00;;;;;;;31.75;28.50;100427.09;109446;1272;23070;-83
2023/06/20 07:54:32;;;;;;;10.20;8.80;;;;;;;31.50;28.13;100428.93;109294;1272;22142;-84
2023/06/20 07:57:32;;;;;;;9.50;8.70;;;;;;;31.28;28.65;100426.51;109470;1272;21885;-84
2023/06/20 08:00:35;;;;;;;9.50;8.70;;;;;;;31.24;29.10;100426.59;109499;1272;22025;-83
2023/06/20 08:03:05;;;;;;;9.30;8.50;;;;;;;31.23;29.06;100423.55;109173;1276;21989;-85
2023/06/20 08:05:51;;;;;;;9.30;8.50;;;;;;;31.32;29.22;100424.62;108788;1282;23075;-84
2023/06/20 08:08:20;;;;;;;8.90;8.20;;;;;;;31.43;28.94;100427.02;108759;1282;21992;-83
2023/06/20 08:10:50;;;;;;;9.80;8.90;;;;;;;31.56;28.48;100427.75;108840;1279;22846;-83
2023/06/20 08:13:19;;;;;;;8.30;7.50;;;;;;;31.65;28.47;100422.84;108866;1279;21992;-84
2023/06/20 08:15:51;;;;;;;9.00;8.00;;;;;;;31.73;28.55;100420.05;108849;1279;23770;-83
2023/06/20 08:18:21;;;;;;;10.40;8.40;;;;;;;31.80;28.35;100421.14;108866;1279;22042;-82
2023/06/20 08:21:02;;;;;;;8.60;7.90;;;;;;;31.67;28.16;100420.28;109015;1274;22008;-83
2023/06/20 08:23:39;;;;;;;9.30;8.60;;;;;;;31.50;28.57;100417.66;109117;1272;21985;-83
2023/06/20 08:26:16;;;;;;;9.20;8.40;;;;;;;31.58;28.95;100412.33;109330;1272;23795;-83
2023/06/20 08:28:52;;;;;;;8.50;7.70;;;;;;;31.65;28.95;100402.70;109539;1272;23822;-83
2023/06/20 08:31:36;;;;;;;8.70;7.30;;;;;;;31.87;28.82;100408.09;109509;1272;21961;-83
2023/06/20 08:34:08;;;;;;;6.00;5.60;;;;;;;32.01;28.31;100412.52;109418;1272;21983;-83
2023/06/20 08:36:43;;;;;;;8.00;6.70;;;;;;;32.03;27.76;100412.07;109052;1278;21989;-85
2023/06/20 08:39:18;;;;;;;8.20;6.80;;;;;;;32.19;28.01;100409.11;109125;1278;22840;-82
2023/06/20 08:41:59;;;;;;;7.70;7.10;;;;;;;32.49;27.97;100409.37;109413;1273;21965;-82
2023/06/20 08:44:28;;;;;;;12.30;8.40;;;;;;;32.66;27.58;100409.63;109468;1273;22003;-83
2023/06/20 08:47:26;;;;;;;7.10;6.50;;;;;;;32.81;27.30;100409.23;109470;1272;24474;-82
2023/06/20 08:49:56;;;;;;;7.20;6.50;;;;;;;33.00;27.44;100406.71;109362;1274;21979;-81
2023/06/20 08:52:31;;;;;;;5.50;5.10;;;;;;;33.17;26.70;100409.72;108965;1273;23046;-82
2023/06/20 08:55:05;;;;;;;7.50;6.50;;;;;;;33.13;26.29;100409.59;109348;1272;21982;-84
2023/06/20 08:57:35;;;;;;;7.60;6.80;;;;;;;33.04;26.34;100407.02;109004;1278;21994;-82
2023/06/20 09:00:12;;;;;;;6.30;5.70;;;;;;;32.93;26.42;100404.70;108920;1278;22583;-83
2023/06/20 09:02:42;;;;;;;8.90;8.10;;;;;;;32.87;26.48;100404.52;108538;1284;22063;-84
2023/06/20 09:05:15;;;;;;;6.60;6.00;;;;;;;32.87;26.37;100405.67;108573;1282;22314;-82
2023/06/20 09:07:47;;;;;;;9.00;6.30;;;;;;;32.87;26.39;100401.60;108780;1284;22939;-82
2023/06/20 09:10:23;;;;;;;7.50;6.90;;;;;;;32.88;26.42;100398.40;108794;1279;23723;-82
2023/06/20 09:13:06;;;;;;;10.60;7.30;;;;;;;32.97;26.48;100393.52;108843;1279;22003;-82
2023/06/20 09:15:39;;;;;;;8.00;6.60;;;;;;;33.13;26.41;100395.75;109139;1273;22070;-81
2023/06/20 09:18:13;;;;;;;7.20;5.80;;;;;;;33.25;25.74;100396.14;109381;1273;23222;-82
2023/06/20 09:20:51;;;;;;;7.60;6.30;;;;;;;33.28;25.20;100390.11;109523;1268;22280;-82
2023/06/20 09:23:33;;;;;;;;;;;;;;;33.23;25.09;100387.95;109719;1268;23035;-82
2023/06/20 09:26:21;;;;;;;6.90;6.30;;;;;;;33.14;25.53;100389.46;109437;1265;22010;-81
2023/06/20 09:29:07;;;;;;;16.80;6.90;;;;;;;33.16;25.52;100392.80;109398;1268;21972;-83
2023/06/20 09:31:49;;;;;;;6.70;6.00;;;;;;;33.13;25.02;100390.16;109226;1276;22069;-82
2023/06/20 09:34:21;;;;;;;6.20;5.70;;;;;;;33.09;24.92;100385.93;109254;1276;22447;-82
2023/06/20 09:36:51;;;;;;;7.70;6.20;;;;;;;32.99;24.56;100384.30;109074;1279;21999;-82
2023/06/20 09:39:20;;;;;;;7.40;6.40;;;;;;;32.86;24.84;100380.55;108763;1283;22035;-83
2023/06/20 09:41:54;;;;;;;8.30;6.60;;;;;;;32.86;25.10;100380.42;108161;1290;22049;-83
2023/06/20 09:44:32;;;;;;;6.90;6.30;;;;;;;32.79;24.91;100380.41;108428;1286;22012;-84
2023/06/20 09:47:04;;;;;;;7.20;6.50;;;;;;;32.66;24.98;100375.67;108354;1291;22303;-83
2023/06/20 09:49:43;;;;;;;6.60;6.10;;;;;;;32.70;25.51;100378.80;108257;1286;21989;-82
2023/06/20 09:52:21;;;;;;;7.30;6.60;;;;;;;32.74;25.15;100380.55;108509;1287;23832;-82
2023/06/20 09:55:02;;;;;;;7.50;6.80;;;;;;;32.59;25.38;100381.13;108503;1284;21994;-83
2023/06/20 09:58:00;;;;;;;7.10;6.50;;;;;;;32.54;25.75;100382.66;108824;1279;22117;-83
2023/06/20 10:00:31;;;;;;;7.50;6.80;;;;;;;32.41;25.21;100386.83;109169;1273;21994;-83
2023/06/20 10:03:12;;;;;;;12.20;8.30;;;;;;;32.34;25.51;100381.39;109487;1273;21950;-84
2023/06/20 10:05:52;;;;;;;8.10;7.00;;;;;;;32.45;25.90;100383.19;109751;1268;23644;-82
2023/06/20 10:08:24;;;;;;;7.80;7.00;;;;;;;32.66;25.80;100382.73;109738;1268;21977;-83
2023/06/20 10:10:59;;;;;;;7.10;6.50;;;;;;;32.81;25.57;100381.48;109342;1273;21987;-82
2023/06/20 10:13:30;;;;;;;9.80;6.70;;;;;;;32.83;25.39;100377.26;109360;1268;23852;-84
2023/06/20 10:15:59;;;;;;;7.50;6.80;;;;;;;32.86;25.38;100376.69;109304;1270;23093;-83
2023/06/20 10:18:53;;;;;;;7.80;7.00;;;;;;;32.78;25.37;100374.83;109385;1273;23164;-82
2023/06/20 10:21:51;;;;;;;6.50;6.00;;;;;;;32.73;25.52;100379.06;109119;1279;22201;-82
2023/06/20 10:24:24;;;;;;;13.20;7.10;;;;;;;32.61;25.63;100372.36;109147;1278;21986;-82
2023/06/20 10:26:59;;;;;;;9.00;6.40;;;;;;;32.49;25.86;100372.70;109129;1278;24321;-82
2023/06/20 10:29:40;;;;;;;6.90;6.30;;;;;;;32.30;26.07;100373.98;109285;1273;23711;-83
2023/06/20 10:32:13;;;;;;;7.10;6.50;;;;;;;32.27;26.35;100369.73;109466;1268;23709;-83
2023/06/20 10:34:52;;;;;;;7.40;6.80;;;;;;;32.40;26.63;100366.30;109612;1273;22755;-83
2023/06/20 10:37:30;;;;;;;7.90;7.20;;;;;;;32.52;26.25;100359.25;109232;1273;22012;-82
2023/06/20 10:40:09;;;;;;;8.40;7.30;;;;;;;32.59;25.96;100360.92;110070;1268;21993;-82
2023/06/20 10:42:47;;;;;;;7.00;6.40;;;;;;;32.55;25.88;100356.98;109758;1265;21973;-83
2023/06/20 10:45:29;;;;;;;8.00;7.30;;;;;;;32.48;26.09;100353.42;109758;1268;21981;-82
2023/06/20 10:48:01;;;;;;;6.60;6.10;;;;;;;32.47;26.16;100349.67;109388;1268;22217;-83
2023/06/20 10:50:32;;;;;;;9.00;6.80;;;;;;;32.36;26.44;100350.01;109212;1275;22098;-83
2023/06/20 10:53:05;;;;;;;10.40;6.90;;;;;;;32.29;26.67;100347.72;109313;1275;21992;-82
2023/06/20 10:55:41;;;;;;;7.30;6.70;;;;;;;32.21;26.76;100349.30;109164;1275;22784;-83
2023/06/20 10:58:10;;;;;;;7.30;6.60;;;;;;;32.05;26.87;100352.60;109029;1278;23618;-82
2023/06/20 11:01:02;;;;;;;8.30;7.50;;;;;;;31.95;26.80;100350.96;108893;1283;23820;-84
2023/06/20 11:03:35;;;;;;;8.10;7.40;;;;;;;31.92;27.13;100344.01;108759;1286;22642;-79
2023/06/20 11:06:19;;;;;;;11.00;6.70;;;;;;;32.02;27.33;100342.48;108528;1285;22537;-81
2023/06/20 11:08:51;;;;;;;10.50;6.70;;;;;;;32.09;26.91;100337.40;108642;1282;22010;-88
2023/06/20 11:12:08;;;;;;;8.90;6.40;;;;;;;32.01;26.91;100336.60;108858;1281;24962;-83
2023/06/20 11:15:30;;;;;;;8.80;6.30;;;;;;;31.92;27.12;100339.19;108323;1293;22957;-88
2023/06/20 11:18:24;;;;;;;6.60;6.00;;;;;;;31.89;26.80;100336.42;108400;1288;22008;-90
2023/06/20 11:21:29;;;;;;;8.50;6.10;;;;;;;31.84;27.01;100340.34;108858;1282;23651;-89
2023/06/20 11:24:43;;;;;;;7.70;6.50;;;;;;;31.75;26.91;100340.24;108872;1284;22365;-88
2023/06/20 11:27:55;;;;;;;9.00;6.80;;;;;;;31.65;26.79;100338.06;108949;1284;23013;-88
2023/06/20 11:31:04;;;;;;;;;;;;;;;;;;;;;
2023/06/20 11:35:13;;;;;;;9.20;6.90;;;;;;;31.58;27.10;100328.05;109183;1275;22007;-89
2023/06/20 11:39:07;;;;;;;7.50;6.80;;;;;;;31.65;27.29;100325.27;108634;1289;23625;-85
2023/06/20 11:42:34;;;;;;;7.60;6.80;;;;;;;31.81;27.17;100324.55;108482;1289;23677;-81
2023/06/20 11:48:36;;;;;;;7.30;6.60;;;;;;;31.91;26.81;100318.59;107496;1298;22033;-81
2023/06/20 11:51:20;;;;;;;6.60;6.10;;;;;;;31.84;26.93;100319.63;107445;1291;22074;-83
2023/06/20 11:54:12;;;;;;;7.60;5.80;;;;;;;31.80;26.99;100318.19;107501;1296;22213;-81
2023/06/20 11:57:09;;;;;;;13.40;6.90;;;;;;;31.78;27.08;100313.52;107716;1294;23106;-80
2023/06/20 11:59:59;;;;;;;6.90;5.80;;;;;;;31.81;27.26;100312.70;107847;1296;22346;-80
2023/06/20 12:03:10;;;;;;;7.80;6.80;;;;;;;31.78;26.97;100310.95;107783;1297;22173;-80
2023/06/20 12:05:37;;;;;;;8.00;7.20;;;;;;;31.74;27.05;100309.67;107590;1294;22029;-81
2023/06/20 12:08:09;;;;;;;4.10;3.00;;;;;;;31.76;26.66;100304.17;107494;1295;22011;-82
2023/06/20 12:10:47;;;;;;;8.30;7.50;;;;;;;31.79;26.67;100299.38;107573;1292;22029;-82
2023/06/20 12:13:18;;;;;;;7.00;6.50;;;;;;;31.83;26.54;100300.27;108534;1282;23685;-82
2023/06/20 12:15:47;;;;;;;8.10;7.30;;;;;;;31.85;26.40;100297.91;109043;1276;21988;-82
2023/06/20 12:18:23;;;;;;;7.40;6.70;;;;;;;31.92;26.73;100295.65;109193;1277;22229;-81
2023/06/20 12:21:49;;;;;;;9.00;6.20;;;;;;;31.99;26.42;100295.66;108820;1282;21982;-84
2023/06/20 12:24:39;;;;;;;7.60;5.50;;;;;;;31.95;26.29;100291.25;108540;1283;22076;-84
2023/06/20 12:27:57;;;;;;;8.00;7.30;;;;;;;31.96;26.26;100284.27;108825;1280;21984;-83
2023/06/20 12:30:55;;;;;;;9.20;6.70;;;;;;;31.94;26.19;100285.88;108797;1284;23782;-82
2023/06/20 12:34:26;;;;;;;7.20;6.50;;;;;;;31.97;26.42;100284.15;108998;1285;22136;-83
2023/06/20 12:38:04;;;;;;;;;;;;;;;;;;;;;
2023/06/20 12:42:18;;;;;;;;;;;;;;;;;;;;;
2023/06/20 12:46:35;;;;;;;;;;;;;;;;;;;;;
2023/06/20 12:50:02;;;;;;;6.90;6.30;;;;;;;31.87;26.12;100274.77;107762;1300;22026;-82
2023/06/20 12:53:14;;;;;;;5.40;4.90;;;;;;;31.88;26.09;100273.10;107530;1299;22031;-81
2023/06/20 12:56:22;;;;;;;9.50;6.80;;;;;;;31.85;26.26;100273.74;107100;1304;22024;-81